Weather observations for the past three days for
Redfield Municipal Airport
Imperial (Metric)
Date Time (cdt) Wind (mph) Vis. (mi.) Weather Sky Cond. Temperature (ºF) Relative Humidity Wind Chill (°F) Heat Index (°F) Pressure Precipitation (in)
Air Dwpt 6 hour altimeter (in) sea level (mb) 1 hr 3 hr 6 hr
Max. Min.
03 20:15 SW 8 10.00 Fair CLR 64.4 35.6 34% 29.66 0.0
03 19:55 W 10 10.00 Fair CLR 68 33.8 28% 29.67 0.0
03 19:35 W 10 G 17 10.00 Fair CLR 69.8 32 25% 29.68 0.0
03 19:15 W 14 10.00 Fair CLR 69.8 30.2 23% 29.69 0.0
03 18:55 W 16 G 22 10.00 Fair CLR 71.6 28.4 20% 29.69 0.0
03 18:35 W 15 G 23 10.00 Fair CLR 71.6 28.4 20% 29.7 0.0
03 18:15 W 17 G 28 10.00 Fair CLR 71.6 32 23% 29.7 0.0
03 17:55 SW 10 G 20 10.00 Fair CLR 71.6 30.2 22% 29.71 0.0
03 17:35 W 9 G 20 10.00 Fair CLR 71.6 32 23% 29.72 0.0
03 17:15 W 10 G 17 10.00 Fair CLR 73.4 32 22% 29.73 0.0
03 16:55 W 10 G 20 8.00 Fair CLR 71.6 32 23% 29.74 0.0
03 16:35 W 8 G 17 9.00 Fair CLR 71.6 32 23% 29.75 0.0
03 16:15 W 13 G 18 10.00 Fair CLR 71.6 32 23% 29.76 0.0
03 15:55 W 15 10.00 Fair CLR 71.6 35.6 27% 29.77 0.0
03 15:35 NW 12 10.00 Fair CLR 69.8 33.8 27% 29.78 0.0
03 15:15 NW 14 10.00 Fair CLR 71.6 33.8 25% 29.79 0.0
03 14:55 Vrbl 3 G 15 10.00 Fair CLR 69.8 32 25% 29.8 0.0
03 14:35 Calm 10.00 Fair CLR 69.8 32 25% 29.81 0.0
03 14:15 NW 8 G 17 10.00 Fair CLR 69.8 33.8 27% 29.82 0.0
03 13:55 NW 10 G 22 10.00 Fair CLR 69.8 33.8 27% 29.83 0.0
03 13:35 NW 8 G 15 10.00 Fair CLR 68 32 26% 29.83 0.0
03 13:15 NW 14 10.00 Fair CLR 68 32 26% 29.84 0.0
03 12:55 NW 9 G 18 10.00 Fair CLR 68 32 26% 29.86 0.0
03 12:35 NW 10 G 18 10.00 Fair CLR 66.2 32 28% 29.86 0.0
03 12:15 NW 13 10.00 Fair CLR 68 33.8 28% 29.87 0.0
03 11:55 NW 15 G 22 10.00 Fair CLR 66.2 35.6 32% 29.88 0.0
03 11:35 NW 15 10.00 Fair CLR 66.2 39.2 37% 29.88 0.0
03 11:15 W 14 10.00 Fair CLR 64.4 39.2 40% 29.89 0.0
03 10:55 NW 13 10.00 Fair CLR 62.6 41 45% 29.89 0.0
03 10:35 NW 10 10.00 Fair CLR 60.8 41 48% 29.9 0.0
03 10:15 NW 8 10.00 Fair CLR 59 41 51% 29.9 0.0
03 09:55 N 7 G 14 10.00 Fair CLR 59 41 51% 29.9 0.0
03 09:35 N 8 10.00 Fair CLR 59 41 51% 29.9 0.0
03 09:15 N 7 10.00 Fair CLR 57.2 42.8 59% 29.91 0.0
03 08:55 NW 7 10.00 Fair CLR 55.4 42.8 63% 29.91 0.0
03 08:35 NW 9 10.00 Fair CLR 51.8 42.8 72% 29.91 0.0
03 08:15 NW 10 10.00 Fair CLR 50 42.8 76% 46 29.91 0.0
03 07:55 NW 10 10.00 Fair CLR 48.2 42.8 82% 44 29.91 0.0
03 07:35 NW 9 10.00 Fair CLR 44.6 41 87% 40 29.9 0.0
03 07:15 NW 9 10.00 Fair CLR 42.8 41 93% 38 29.9 0.0
03 06:55 NW 9 10.00 Fair CLR 41 41 100% 36 29.9 0.0
03 06:35 NW 8 10.00 Fair CLR 41 39.2 93% 36 29.89 0.0
03 06:15 NW 9 10.00 Fair CLR 42.8 39.2 87% 38 29.89 0.0
03 05:55 NW 10 10.00 Fair CLR 42.8 41 93% 38 29.88 0.0
03 05:35 NW 7 10.00 Fair CLR 42.8 39.2 87% 39 29.88 0.0
03 05:15 NW 8 10.00 Fair CLR 42.8 39.2 87% 39 29.87 0.0
03 04:55 NW 9 10.00 Fair CLR 44.6 41 87% 40 29.87 0.0
03 04:35 NW 7 10.00 Fair CLR 42.8 39.2 87% 39 29.87 0.0
03 04:15 NW 9 10.00 Fair CLR 42.8 39.2 87% 38 29.86 0.0
03 03:55 N 8 10.00 Fair CLR 44.6 39.2 81% 41 29.86 0.0
03 03:35 NW 8 10.00 Fair CLR 46.4 39.2 76% 43 29.85 0.0
03 03:15 NW 9 10.00 Fair CLR 46.4 39.2 76% 42 29.84 0.0
03 02:55 N 9 10.00 Fair CLR 48.2 41 76% 45 29.84 0.0
03 02:35 N 9 10.00 Fair CLR 50 41 71% 47 29.83 0.0
03 02:15 N 12 10.00 Fair CLR 50 41 71% 46 29.83 0.0
03 01:55 N 12 10.00 Fair CLR 53.6 41 63% 29.82 0.0
03 01:35 N 14 10.00 Fair CLR 55.4 39.2 55% 29.82 0.0
03 01:15 N 15 G 21 10.00 Fair CLR 55.4 39.2 55% 29.81 0.0
03 00:55 NW 15 G 24 10.00 Fair CLR 57.2 39.2 51% 29.8 0.0
03 00:35 NW 17 G 26 10.00 Fair CLR 59 37.4 45% 29.8 0.0
03 00:15 NW 17 10.00 Fair CLR 60.8 37.4 42% 29.79 0.0
02 23:55 NW 13 10.00 Fair CLR 57.2 37.4 48% 29.79 0.0
02 23:35 NW 10 10.00 Fair CLR 57.2 39.2 51% 29.79 0.0
02 23:15 NW 9 10.00 Fair CLR 57.2 39.2 51% 29.79 0.0
02 22:55 NW 9 10.00 Fair CLR 60.8 39.2 45% 29.79 0.0
02 22:35 NW 13 G 18 10.00 Fair CLR 62.6 39.2 42% 29.79 0.0
02 22:15 NW 13 G 18 10.00 Fair CLR 62.6 39.2 42% 29.79 0.0
02 21:55 NW 13 10.00 Fair CLR 64.4 39.2 40% 29.79 0.0
02 21:35 NW 15 10.00 Fair CLR 66.2 39.2 37% 29.77 0.0
02 21:15 NW 10 10.00 A Few Clouds FEW110 66.2 41 40% 29.76 0.0
02 20:55 NW 10 10.00 Mostly Cloudy BKN110 66.2 41 40% 29.76 0.0
02 20:35 W 12 10.00 Mostly Cloudy SCT100 BKN120 68 41 38% 29.75 0.0
02 20:15 W 15 G 24 10.00 Mostly Cloudy BKN110 68 42.8 40% 29.75 0.0
02 19:55 W 12 G 18 10.00 Partly Cloudy SCT120 69.8 41 35% 29.74 0.0
02 19:35 W 8 10.00 Fair CLR 71.6 41 33% 29.74 0.0
02 19:15 W 7 10.00 Fair CLR 71.6 39.2 31% 29.75 0.0
02 18:55 W 6 10.00 Fair CLR 71.6 41 33% 29.75 0.0
02 18:35 W 9 10.00 Partly Cloudy SCT120 73.4 39.2 29% 29.76 0.0
02 18:15 W 12 G 17 10.00 A Few Clouds FEW080 FEW120 73.4 37.4 27% 29.77 0.0
02 17:55 W 12 10.00 Fair CLR 73.4 37.4 27% 29.77 0.0
02 17:35 W 16 10.00 Fair CLR 75.2 35.6 24% 76 29.78 0.0
02 17:15 SW 15 G 23 10.00 Fair CLR 75.2 35.6 24% 76 29.79 0.0
02 16:55 SW 15 G 23 10.00 Fair CLR 75.2 35.6 24% 76 29.8 0.0
02 16:35 SW 16 G 26 10.00 Fair CLR 75.2 35.6 24% 76 29.81 0.0
02 16:15 W 16 G 28 10.00 Fair CLR 75.2 35.6 24% 76 29.83 0.0
02 15:55 SW 23 10.00 Fair and Breezy CLR 75.2 33.8 22% 76 29.83 0.0
02 15:35 SW 18 G 28 10.00 Fair CLR 71.6 32 23% 29.84 0.0
02 15:15 SW 20 G 30 10.00 Fair CLR 71.6 32 23% 29.85 0.0
02 14:55 SW 17 G 26 10.00 Fair CLR 71.6 32 23% 29.86 0.0
02 14:35 SW 21 G 29 10.00 Fair and Breezy CLR 71.6 32 23% 29.88 0.0
02 14:15 SW 20 G 29 10.00 Fair CLR 69.8 32 25% 29.89 0.0
02 13:55 SW 21 G 28 10.00 Fair and Breezy CLR 69.8 26.6 20% 29.9 0.0
02 13:35 SW 22 G 33 10.00 Fair and Breezy CLR 69.8 23 17% 29.92 0.0
02 13:15 SW 21 G 33 10.00 Fair and Breezy CLR 68 26.6 21% 29.93 0.0
02 12:55 SW 24 G 30 10.00 Fair and Breezy CLR 68 26.6 21% 29.95 0.0
02 12:35 SW 21 G 29 10.00 Fair and Breezy CLR 68 26.6 21% 29.96 0.0
02 12:15 SW 23 G 31 10.00 Fair and Breezy CLR 68 30.2 24% 29.97 0.0
02 11:55 SW 24 G 32 10.00 Fair and Breezy CLR 66.2 32 28% 29.98 0.0
02 11:35 W 20 G 30 10.00 Fair CLR 66.2 32 28% 29.99 0.0
02 11:15 W 21 G 30 10.00 Fair and Breezy CLR 64.4 32 30% 30 0.0
02 10:55 W 17 G 26 10.00 Fair CLR 62.6 33.8 34% 30.01 0.0
02 10:35 W 17 10.00 Fair CLR 60.8 35.6 39% 30.02 0.0
02 10:15 W 17 10.00 Fair CLR 59 35.6 42% 30.02 0.0
02 09:55 W 17 G 28 10.00 Fair CLR 57.2 35.6 44% 30.03 0.0
02 09:35 W 15 10.00 Fair CLR 53.6 35.6 51% 30.03 0.0
02 09:15 W 17 G 23 10.00 Fair CLR 51.8 35.6 54% 30.04 0.0
02 08:55 W 15 10.00 Fair CLR 48.2 37.4 66% 43 30.04 0.0
02 08:35 SW 15 10.00 Fair CLR 46.4 35.6 66% 41 30.05 0.0
02 08:15 SW 14 10.00 Fair CLR 42.8 35.6 76% 36 30.05 0.0
02 07:55 SW 10 10.00 Fair CLR 41 37.4 87% 35 30.05 0.0
02 07:35 SW 12 10.00 Fair CLR 37.4 33.8 87% 30 30.05 0.0
02 07:15 SW 12 10.00 Fair CLR 33.8 32 93% 26 30.04 0.0
02 06:55 S 10 10.00 Fair CLR 33.8 32 93% 26 30.05 0.0
02 06:35 S 9 10.00 Fair CLR 32 30.2 93% 25 30.06 0.0
02 06:15 S 9 10.00 Fair CLR 32 30.2 93% 25 30.06 0.0
02 05:55 S 8 10.00 Fair CLR 32 30.2 93% 25 30.07 0.0
02 05:35 S 6 10.00 Fair CLR 32 28.4 87% 27 30.07 0.0
02 05:15 SW 7 10.00 Fair CLR 32 30.2 93% 26 30.07 0.0
02 04:55 S 6 10.00 Fair CLR 32 30.2 93% 27 30.08 0.0
02 04:35 SW 7 10.00 Fair CLR 33.8 30.2 87% 28 30.08 0.0
02 04:15 S 8 9.00 Unknown Precip CLR 33.8 30.2 87% 28 30.08 0.0
02 03:55 S 7 10.00 Fair CLR 33.8 30.2 87% 28 30.08 0.0
02 03:35 S 7 10.00 Fair CLR 32 30.2 93% 26 30.08 0.0
02 03:15 SW 8 10.00 Fair CLR 32 28.4 87% 25 30.09 0.0
02 02:55 SW 9 10.00 Fair CLR 33.8 30.2 87% 27 30.1 0.0
02 02:35 SW 7 10.00 Fair CLR 33.8 30.2 87% 28 30.1 0.0
02 02:15 S 7 10.00 Fair CLR 33.8 30.2 87% 28 30.1 0.0
02 01:55 S 7 10.00 Fair CLR 33.8 30.2 87% 28 30.11 0.0
02 01:35 SW 7 10.00 Fair CLR 35.6 30.2 81% 31 30.11 0.0
02 01:15 SW 7 10.00 Fair CLR 35.6 30.2 81% 31 30.12 0.0
02 00:55 S 8 10.00 Fair CLR 35.6 30.2 81% 30 30.12 0.0
02 00:35 S 9 10.00 Fair CLR 37.4 32 81% 31 30.12 0.0
02 00:15 S 8 10.00 Fair CLR 37.4 32 81% 32 30.12 0.0
01 23:55 S 7 10.00 A Few Clouds FEW046 37.4 30.2 75% 33 30.12 0.0
01 23:35 S 9 10.00 Fair CLR 41 28.4 61% 36 30.12 0.0
01 23:15 S 3 10.00 Fair CLR 41 28.4 61% 30.13 0.0
01 22:55 S 5 10.00 Fair CLR 39.2 30.2 70% 36 30.12 0.0
01 22:35 S 7 10.00 Fair CLR 42.8 28.4 57% 39 30.12 0.0
01 22:15 SE 7 10.00 Fair CLR 44.6 28.4 53% 41 30.12 0.0
01 21:55 SE 7 10.00 Fair CLR 46.4 28.4 50% 43 30.11 0.0
01 21:35 SE 7 10.00 Fair CLR 46.4 30.2 53% 43 30.11 0.0
01 21:15 SE 7 10.00 Fair CLR 48.2 30.2 50% 46 30.1 0.0
01 20:55 SE 5 10.00 Fair CLR 48.2 30.2 50% 47 30.09 0.0
01 20:35 E 5 10.00 Fair CLR 51.8 30.2 44% 30.09 0.0
01 20:15 E 3 10.00 Fair CLR 53.6 32 44% 30.09 0.0
01 19:55 E 5 10.00 Fair CLR 55.4 28.4 36% 30.09 0.0
01 19:35 N 6 10.00 Fair CLR 55.4 30.2 38% 30.09 0.0
01 19:15 N 5 10.00 Fair CLR 57.2 28.4 33% 30.09 0.0
01 18:55 NE 7 10.00 Fair CLR 57.2 30.2 36% 30.09 0.0
01 18:35 N 7 10.00 Fair CLR 57.2 28.4 33% 30.1 0.0
01 18:15 NE 7 G 13 10.00 Fair CLR 57.2 28.4 33% 30.1 0.0
01 17:55 N 9 G 16 10.00 Fair CLR 57.2 28.4 33% 30.1 0.0
01 17:35 Vrbl 3 G 14 10.00 Fair CLR 57.2 28.4 33% 30.1 0.0
01 17:15 Calm 10.00 Fair CLR 55.4 26.6 33% 30.1 0.0
01 16:55 NE 10 G 18 10.00 Fair CLR 57.2 28.4 33% 30.1 0.0
01 16:35 N 10 G 21 10.00 Fair CLR 57.2 28.4 33% 30.11 0.0
01 16:15 N 10 10.00 A Few Clouds FEW065 57.2 28.4 33% 30.11 0.0
01 15:55 N 13 10.00 A Few Clouds FEW065 55.4 28.4 36% 30.12 0.0
01 15:35 N 13 G 20 10.00 Partly Cloudy SCT065 55.4 26.6 33% 30.13 0.0
01 15:15 N 13 10.00 Partly Cloudy SCT065 55.4 28.4 36% 30.13 0.0
01 14:55 N 10 10.00 A Few Clouds FEW065 55.4 28.4 36% 30.13 0.0
01 14:35 N 12 G 21 10.00 A Few Clouds FEW060 53.6 26.6 35% 30.13 0.0
01 14:15 N 12 G 22 10.00 A Few Clouds FEW060 53.6 28.4 38% 30.13 0.0
01 13:55 N 12 G 20 10.00 Fair CLR 53.6 28.4 38% 30.14 0.0
01 13:35 NW 9 G 16 10.00 Fair CLR 51.8 26.6 38% 30.14 0.0
01 13:15 NW 13 G 28 10.00 Fair CLR 53.6 30.2 41% 30.14 0.0
01 12:55 N 12 G 20 10.00 Fair CLR 51.8 28.4 41% 30.15 0.0
01 12:35 N 9 G 16 10.00 Fair CLR 51.8 30.2 44% 30.15 0.0
01 12:15 N 13 G 18 10.00 Fair CLR 50 28.4 43% 46 30.16 0.0
01 11:55 N 13 10.00 Fair CLR 48.2 30.2 50% 43 30.16 0.0
01 11:35 N 9 10.00 Fair CLR 48.2 30.2 50% 45 30.16 0.0
01 11:15 N 7 G 16 10.00 Fair CLR 48.2 30.2 50% 46 30.16 0.0
01 10:55 Vrbl 6 G 15 10.00 Fair CLR 46.4 30.2 53% 44 30.16 0.0
01 10:35 N 5 G 12 10.00 Fair CLR 44.6 28.4 53% 43 30.16 0.0
01 10:15 N 7 10.00 Fair CLR 42.8 28.4 57% 39 30.16 0.0
01 09:55 NE 9 10.00 Fair CLR 42.8 30.2 61% 38 30.16 0.0
01 09:35 NE 7 10.00 Fair CLR 41 30.2 66% 37 30.16 0.0
01 09:15 N 7 10.00 Fair CLR 39.2 32 75% 35 30.16 0.0
01 08:55 N 7 10.00 Fair CLR 37.4 32 81% 33 30.16 0.0
01 08:35 N 6 10.00 Fair CLR 35.6 30.2 81% 31 30.16 0.0
01 08:15 N 6 10.00 Fair CLR 33.8 30.2 87% 29 30.16 0.0
01 07:55 N 6 10.00 Fair CLR 30.2 30.2 100% 25 30.16 0.0
01 07:35 N 5 10.00 Fair CLR 28.4 28.4 100% 24 30.16 0.0
01 07:15 NW 5 10.00 Fair CLR 26.6 26.6 100% 22 30.15 0.0
01 06:55 Calm 10.00 Fair CLR 24.8 24.8 100% 30.15 0.0
01 06:35 NW 5 10.00 Fair CLR 24.8 24.8 100% 20 30.14 0.0
01 06:15 NW 6 10.00 Fair CLR 24.8 24.8 100% 19 30.14 0.0
01 05:55 N 8 10.00 Fair CLR 26.6 26.6 100% 19 30.14 0.0
01 05:35 N 9 10.00 Fair CLR 26.6 26.6 100% 18 30.14 0.0
01 05:15 NW 6 10.00 Fair CLR 26.6 26.6 100% 21 30.13 0.0
01 04:55 NW 8 10.00 Fair CLR 26.6 26.6 100% 19 30.13 0.0
01 04:35 NW 7 10.00 Fair CLR 26.6 26.6 100% 20 30.12 0.0
01 04:15 N 5 10.00 Fair CLR 28.4 28.4 100% 24 30.12 0.0
01 03:55 NW 3 10.00 Fair CLR 28.4 28.4 100% 30.11 0.0
01 03:35 NW 5 10.00 Fair CLR 28.4 28.4 100% 24 30.11 0.0
01 03:15 Calm 10.00 Fair CLR 32 30.2 93% 30.11 0.0
01 02:55 Calm 10.00 Fair CLR 33.8 30.2 87% 30.11 0.0
01 02:35 NE 5 10.00 Fair CLR 33.8 30.2 87% 30 30.11 0.0
01 02:15 E 6 10.00 Fair CLR 33.8 30.2 87% 29 30.12 0.0
01 01:55 NE 7 10.00 Fair CLR 33.8 30.2 87% 28 30.12 0.0
01 01:35 NE 8 10.00 Fair CLR 35.6 32 87% 30 30.12 0.0
01 01:15 N 9 10.00 Fair CLR 35.6 30.2 81% 29 30.13 0.0
01 00:55 N 10 10.00 Fair CLR 35.6 32 87% 29 30.13 0.0
01 00:35 N 9 10.00 Fair CLR 33.8 32 93% 27 30.13 0.0
01 00:15 N 12 10.00 Fair CLR 33.8 32 93% 26 30.12 0.0
30 23:55 N 12 10.00 Fair CLR 33.8 32 93% 26 30.11 0.0
30 23:35 N 9 10.00 Fair CLR 35.6 33.8 93% 29 30.11 0.0
30 23:15 N 12 10.00 Fair CLR 37.4 33.8 87% 30 30.1 0.0
30 22:55 N 8 10.00 Fair CLR 41 32 70% 36 30.1 0.0
30 22:35 N 9 10.00 Fair CLR 41 33.8 76% 36 30.1 0.0
30 22:15 N 12 10.00 Fair CLR 42.8 33.8 71% 37 30.1 0.0
30 21:55 N 12 10.00 Fair CLR 42.8 33.8 71% 37 30.09 0.0
30 21:35 N 10 10.00 A Few Clouds FEW060 44.6 33.8 66% 40 30.08 0.0
30 21:15 N 12 G 18 10.00 Partly Cloudy SCT060 46.4 33.8 62% 42 30.07 0.0
30 20:55 N 16 G 23 10.00 Fair CLR 48.2 33.8 58% 43 30.05 0.0
30 20:35 N 20 G 26 10.00 Fair CLR 48.2 33.8 58% 42 30.04 0.0
Date Time (cdt) Wind (mph) Vis. (mi.) Weather Sky Cond. Air Dwpt Max. Min. Relative Humidity Wind Chill (°F) Heat Index (°F) altimeter (in) sea level (mb) 1 hr 3 hr 6 hr
6 hour
Temperature (ºF) Pressure Precipitation (in)